sensor_id;sensor_type;location;lat;lon;timestamp;P1;durP1;ratioP1;P2;durP2;ratioP2
28587;SDS011;15787;49.662;10.162;2023-06-22T00:01:18;17.10;;;11.15;;
28587;SDS011;15787;49.662;10.162;2023-06-22T00:03:54;23.88;;;12.52;;
28587;SDS011;15787;49.662;10.162;2023-06-22T00:06:27;16.15;;;11.38;;
28587;SDS011;15787;49.662;10.162;2023-06-22T00:09:00;17.85;;;12.07;;
28587;SDS011;15787;49.662;10.162;2023-06-22T00:11:33;18.17;;;12.05;;
28587;SDS011;15787;49.662;10.162;2023-06-22T00:14:06;19.85;;;11.40;;
28587;SDS011;15787;49.662;10.162;2023-06-22T00:16:40;17.17;;;11.13;;
28587;SDS011;15787;49.662;10.162;2023-06-22T00:19:15;16.85;;;11.43;;
28587;SDS011;15787;49.662;10.162;2023-06-22T00:21:51;18.15;;;11.65;;
28587;SDS011;15787;49.662;10.162;2023-06-22T00:24:25;21.10;;;11.95;;
28587;SDS011;15787;49.662;10.162;2023-06-22T00:26:58;16.95;;;11.52;;
28587;SDS011;15787;49.662;10.162;2023-06-22T00:29:30;19.80;;;12.02;;
28587;SDS011;15787;49.662;10.162;2023-06-22T00:32:04;17.95;;;11.88;;
28587;SDS011;15787;49.662;10.162;2023-06-22T00:34:39;23.08;;;11.88;;
28587;SDS011;15787;49.662;10.162;2023-06-22T00:37:12;18.90;;;12.85;;
28587;SDS011;15787;49.662;10.162;2023-06-22T00:39:45;25.58;;;14.63;;
28587;SDS011;15787;49.662;10.162;2023-06-22T00:42:18;28.75;;;14.80;;
28587;SDS011;15787;49.662;10.162;2023-06-22T00:44:50;25.75;;;15.60;;
28587;SDS011;15787;49.662;10.162;2023-06-22T00:47:23;21.52;;;15.18;;
28587;SDS011;15787;49.662;10.162;2023-06-22T00:49:58;18.13;;;14.18;;
28587;SDS011;15787;49.662;10.162;2023-06-22T00:52:31;17.52;;;13.55;;
28587;SDS011;15787;49.662;10.162;2023-06-22T00:55:06;17.92;;;12.35;;
28587;SDS011;15787;49.662;10.162;2023-06-22T00:57:40;21.92;;;13.23;;
28587;SDS011;15787;49.662;10.162;2023-06-22T01:00:14;24.52;;;13.02;;
28587;SDS011;15787;49.662;10.162;2023-06-22T01:02:50;22.00;;;13.50;;
28587;SDS011;15787;49.662;10.162;2023-06-22T01:05:25;22.60;;;12.77;;
28587;SDS011;15787;49.662;10.162;2023-06-22T01:08:06;20.55;;;12.10;;
28587;SDS011;15787;49.662;10.162;2023-06-22T01:10:49;19.90;;;12.98;;
28587;SDS011;15787;49.662;10.162;2023-06-22T01:13:26;20.25;;;13.05;;
28587;SDS011;15787;49.662;10.162;2023-06-22T01:16:03;30.90;;;13.32;;
28587;SDS011;15787;49.662;10.162;2023-06-22T01:18:40;25.52;;;12.00;;
28587;SDS011;15787;49.662;10.162;2023-06-22T01:21:17;24.40;;;12.70;;
28587;SDS011;15787;49.662;10.162;2023-06-22T01:23:58;25.13;;;12.80;;
28587;SDS011;15787;49.662;10.162;2023-06-22T01:26:42;21.55;;;12.73;;
28587;SDS011;15787;49.662;10.162;2023-06-22T01:29:22;19.25;;;12.43;;
28587;SDS011;15787;49.662;10.162;2023-06-22T01:31:59;19.00;;;11.73;;
28587;SDS011;15787;49.662;10.162;2023-06-22T01:34:39;17.73;;;12.13;;
28587;SDS011;15787;49.662;10.162;2023-06-22T01:37:14;21.52;;;12.52;;
28587;SDS011;15787;49.662;10.162;2023-06-22T01:39:48;21.88;;;12.27;;
28587;SDS011;15787;49.662;10.162;2023-06-22T01:42:22;21.83;;;12.88;;
28587;SDS011;15787;49.662;10.162;2023-06-22T01:44:58;19.50;;;11.02;;
28587;SDS011;15787;49.662;10.162;2023-06-22T01:47:34;18.88;;;11.00;;
28587;SDS011;15787;49.662;10.162;2023-06-22T01:50:07;16.17;;;11.70;;
28587;SDS011;15787;49.662;10.162;2023-06-22T01:52:42;26.40;;;13.20;;
28587;SDS011;15787;49.662;10.162;2023-06-22T01:55:15;24.63;;;12.68;;
28587;SDS011;15787;49.662;10.162;2023-06-22T01:57:47;22.75;;;13.52;;
28587;SDS011;15787;49.662;10.162;2023-06-22T02:00:22;20.52;;;12.30;;
28587;SDS011;15787;49.662;10.162;2023-06-22T02:03:01;22.20;;;12.32;;
28587;SDS011;15787;49.662;10.162;2023-06-22T02:05:43;20.85;;;12.43;;
28587;SDS011;15787;49.662;10.162;2023-06-22T02:08:22;22.77;;;13.25;;
28587;SDS011;15787;49.662;10.162;2023-06-22T02:10:57;21.25;;;15.25;;
28587;SDS011;15787;49.662;10.162;2023-06-22T02:13:32;22.10;;;14.95;;
28587;SDS011;15787;49.662;10.162;2023-06-22T02:16:08;21.30;;;14.65;;
28587;SDS011;15787;49.662;10.162;2023-06-22T02:18:45;24.05;;;15.35;;
28587;SDS011;15787;49.662;10.162;2023-06-22T02:21:22;21.02;;;15.77;;
28587;SDS011;15787;49.662;10.162;2023-06-22T02:23:56;20.80;;;14.68;;
28587;SDS011;15787;49.662;10.162;2023-06-22T02:26:28;23.58;;;15.23;;
28587;SDS011;15787;49.662;10.162;2023-06-22T02:29:06;22.33;;;15.00;;
28587;SDS011;15787;49.662;10.162;2023-06-22T02:31:40;30.88;;;16.48;;
28587;SDS011;15787;49.662;10.162;2023-06-22T02:34:13;21.27;;;14.15;;
28587;SDS011;15787;49.662;10.162;2023-06-22T02:36:50;25.67;;;14.73;;
28587;SDS011;15787;49.662;10.162;2023-06-22T02:39:23;26.40;;;15.07;;
28587;SDS011;15787;49.662;10.162;2023-06-22T02:41:57;22.17;;;15.13;;
28587;SDS011;15787;49.662;10.162;2023-06-22T02:44:30;38.10;;;17.15;;
28587;SDS011;15787;49.662;10.162;2023-06-22T02:47:04;23.40;;;15.70;;
28587;SDS011;15787;49.662;10.162;2023-06-22T02:49:38;24.52;;;15.93;;
28587;SDS011;15787;49.662;10.162;2023-06-22T02:52:11;23.75;;;15.77;;
28587;SDS011;15787;49.662;10.162;2023-06-22T02:54:44;31.52;;;17.40;;
28587;SDS011;15787;49.662;10.162;2023-06-22T02:57:18;24.08;;;17.15;;
28587;SDS011;15787;49.662;10.162;2023-06-22T02:59:51;23.17;;;16.50;;
28587;SDS011;15787;49.662;10.162;2023-06-22T03:02:25;23.27;;;15.77;;
28587;SDS011;15787;49.662;10.162;2023-06-22T03:04:59;29.02;;;16.67;;
28587;SDS011;15787;49.662;10.162;2023-06-22T03:07:33;28.65;;;15.98;;
28587;SDS011;15787;49.662;10.162;2023-06-22T03:10:06;25.70;;;16.30;;
28587;SDS011;15787;49.662;10.162;2023-06-22T03:12:41;29.17;;;17.67;;
28587;SDS011;15787;49.662;10.162;2023-06-22T03:15:14;31.05;;;17.00;;
28587;SDS011;15787;49.662;10.162;2023-06-22T03:17:50;24.63;;;16.30;;
28587;SDS011;15787;49.662;10.162;2023-06-22T03:20:23;25.13;;;16.77;;
28587;SDS011;15787;49.662;10.162;2023-06-22T03:22:59;27.25;;;16.88;;
28587;SDS011;15787;49.662;10.162;2023-06-22T03:25:31;26.48;;;16.67;;
28587;SDS011;15787;49.662;10.162;2023-06-22T03:28:05;30.58;;;16.05;;
28587;SDS011;15787;49.662;10.162;2023-06-22T03:30:38;24.75;;;15.45;;
28587;SDS011;15787;49.662;10.162;2023-06-22T03:33:12;26.25;;;15.30;;
28587;SDS011;15787;49.662;10.162;2023-06-22T03:35:45;24.65;;;15.07;;
28587;SDS011;15787;49.662;10.162;2023-06-22T03:38:18;25.42;;;16.63;;
28587;SDS011;15787;49.662;10.162;2023-06-22T03:40:51;23.75;;;14.95;;
28587;SDS011;15787;49.662;10.162;2023-06-22T03:43:24;22.13;;;16.27;;
28587;SDS011;15787;49.662;10.162;2023-06-22T03:45:57;20.33;;;14.38;;
28587;SDS011;15787;49.662;10.162;2023-06-22T03:48:32;23.25;;;14.80;;
28587;SDS011;15787;49.662;10.162;2023-06-22T03:51:05;25.30;;;13.77;;
28587;SDS011;15787;49.662;10.162;2023-06-22T03:53:38;26.83;;;13.75;;
28587;SDS011;15787;49.662;10.162;2023-06-22T03:56:11;20.77;;;13.95;;
28587;SDS011;15787;49.662;10.162;2023-06-22T03:58:44;22.17;;;14.15;;
28587;SDS011;15787;49.662;10.162;2023-06-22T04:01:17;22.05;;;13.70;;
28587;SDS011;15787;49.662;10.162;2023-06-22T04:03:52;17.95;;;13.25;;
28587;SDS011;15787;49.662;10.162;2023-06-22T04:06:25;20.02;;;12.77;;
28587;SDS011;15787;49.662;10.162;2023-06-22T04:08:58;21.85;;;14.55;;
28587;SDS011;15787;49.662;10.162;2023-06-22T04:11:31;24.85;;;14.77;;
28587;SDS011;15787;49.662;10.162;2023-06-22T04:14:04;20.83;;;13.02;;
28587;SDS011;15787;49.662;10.162;2023-06-22T04:16:38;25.13;;;14.38;;
28587;SDS011;15787;49.662;10.162;2023-06-22T04:19:12;22.40;;;14.73;;
28587;SDS011;15787;49.662;10.162;2023-06-22T04:21:48;24.23;;;15.20;;
28587;SDS011;15787;49.662;10.162;2023-06-22T04:24:21;20.00;;;14.38;;
28587;SDS011;15787;49.662;10.162;2023-06-22T04:26:53;25.17;;;14.07;;
28587;SDS011;15787;49.662;10.162;2023-06-22T04:29:26;21.35;;;13.60;;
28587;SDS011;15787;49.662;10.162;2023-06-22T04:32:01;20.17;;;13.48;;
28587;SDS011;15787;49.662;10.162;2023-06-22T04:34:38;19.50;;;13.10;;
28587;SDS011;15787;49.662;10.162;2023-06-22T04:37:11;21.70;;;12.43;;
28587;SDS011;15787;49.662;10.162;2023-06-22T04:39:47;16.38;;;11.40;;
28587;SDS011;15787;49.662;10.162;2023-06-22T04:42:20;18.08;;;12.50;;
28587;SDS011;15787;49.662;10.162;2023-06-22T04:44:53;24.25;;;13.35;;
28587;SDS011;15787;49.662;10.162;2023-06-22T04:47:26;19.83;;;12.88;;
28587;SDS011;15787;49.662;10.162;2023-06-22T04:50:00;22.10;;;13.27;;
28587;SDS011;15787;49.662;10.162;2023-06-22T04:52:37;20.25;;;12.85;;
28587;SDS011;15787;49.662;10.162;2023-06-22T04:55:10;20.60;;;12.80;;
28587;SDS011;15787;49.662;10.162;2023-06-22T04:57:45;16.83;;;13.15;;
28587;SDS011;15787;49.662;10.162;2023-06-22T05:00:20;19.65;;;13.38;;
28587;SDS011;15787;49.662;10.162;2023-06-22T05:02:54;18.70;;;13.07;;
28587;SDS011;15787;49.662;10.162;2023-06-22T05:05:50;18.67;;;12.48;;
28587;SDS011;15787;49.662;10.162;2023-06-22T05:08:23;20.92;;;13.40;;
28587;SDS011;15787;49.662;10.162;2023-06-22T05:10:58;21.52;;;13.02;;
28587;SDS011;15787;49.662;10.162;2023-06-22T05:13:36;21.45;;;14.55;;
28587;SDS011;15787;49.662;10.162;2023-06-22T05:16:09;19.38;;;14.35;;
28587;SDS011;15787;49.662;10.162;2023-06-22T05:18:42;22.35;;;15.75;;
28587;SDS011;15787;49.662;10.162;2023-06-22T05:21:16;20.58;;;14.63;;
28587;SDS011;15787;49.662;10.162;2023-06-22T05:23:50;22.45;;;15.60;;
28587;SDS011;15787;49.662;10.162;2023-06-22T05:26:23;23.42;;;16.42;;
28587;SDS011;15787;49.662;10.162;2023-06-22T05:28:56;18.30;;;14.80;;
28587;SDS011;15787;49.662;10.162;2023-06-22T05:31:30;21.80;;;14.68;;
28587;SDS011;15787;49.662;10.162;2023-06-22T05:34:03;21.48;;;15.00;;
28587;SDS011;15787;49.662;10.162;2023-06-22T05:36:37;20.90;;;15.50;;
28587;SDS011;15787;49.662;10.162;2023-06-22T05:39:11;21.42;;;15.93;;
28587;SDS011;15787;49.662;10.162;2023-06-22T05:41:45;20.83;;;14.20;;
28587;SDS011;15787;49.662;10.162;2023-06-22T05:44:18;19.48;;;14.73;;
28587;SDS011;15787;49.662;10.162;2023-06-22T05:46:52;19.00;;;13.50;;
28587;SDS011;15787;49.662;10.162;2023-06-22T05:49:25;20.17;;;15.23;;
28587;SDS011;15787;49.662;10.162;2023-06-22T05:52:02;19.25;;;15.00;;
28587;SDS011;15787;49.662;10.162;2023-06-22T05:54:35;25.88;;;15.48;;
28587;SDS011;15787;49.662;10.162;2023-06-22T05:57:10;24.13;;;16.38;;
28587;SDS011;15787;49.662;10.162;2023-06-22T05:59:43;22.05;;;15.73;;
28587;SDS011;15787;49.662;10.162;2023-06-22T06:02:16;22.58;;;15.05;;
28587;SDS011;15787;49.662;10.162;2023-06-22T06:04:49;23.92;;;16.70;;
28587;SDS011;15787;49.662;10.162;2023-06-22T06:07:23;21.23;;;15.55;;
28587;SDS011;15787;49.662;10.162;2023-06-22T06:09:57;25.33;;;17.42;;
28587;SDS011;15787;49.662;10.162;2023-06-22T06:12:30;27.27;;;17.40;;
28587;SDS011;15787;49.662;10.162;2023-06-22T06:15:04;26.88;;;16.95;;
28587;SDS011;15787;49.662;10.162;2023-06-22T06:17:47;19.90;;;16.38;;
28587;SDS011;15787;49.662;10.162;2023-06-22T06:20:20;24.33;;;16.85;;
28587;SDS011;15787;49.662;10.162;2023-06-22T06:22:56;26.38;;;17.23;;
28587;SDS011;15787;49.662;10.162;2023-06-22T06:25:29;23.08;;;17.35;;
28587;SDS011;15787;49.662;10.162;2023-06-22T06:28:01;22.85;;;16.15;;
28587;SDS011;15787;49.662;10.162;2023-06-22T06:30:36;22.13;;;15.65;;
28587;SDS011;15787;49.662;10.162;2023-06-22T06:33:09;22.85;;;15.73;;
28587;SDS011;15787;49.662;10.162;2023-06-22T06:35:42;18.77;;;14.60;;
28587;SDS011;15787;49.662;10.162;2023-06-22T06:38:16;18.15;;;13.45;;
28587;SDS011;15787;49.662;10.162;2023-06-22T06:40:49;17.67;;;13.88;;
28587;SDS011;15787;49.662;10.162;2023-06-22T06:43:22;19.13;;;14.63;;
28587;SDS011;15787;49.662;10.162;2023-06-22T06:45:56;17.30;;;14.02;;
28587;SDS011;15787;49.662;10.162;2023-06-22T06:48:29;18.45;;;14.45;;
28587;SDS011;15787;49.662;10.162;2023-06-22T06:51:02;17.42;;;13.77;;
28587;SDS011;15787;49.662;10.162;2023-06-22T06:53:37;17.15;;;12.15;;
28587;SDS011;15787;49.662;10.162;2023-06-22T06:56:10;16.98;;;12.90;;
28587;SDS011;15787;49.662;10.162;2023-06-22T06:58:43;17.77;;;13.68;;
28587;SDS011;15787;49.662;10.162;2023-06-22T07:01:17;20.08;;;12.60;;
28587;SDS011;15787;49.662;10.162;2023-06-22T07:03:53;17.75;;;12.70;;
28587;SDS011;15787;49.662;10.162;2023-06-22T07:06:26;16.92;;;12.55;;
28587;SDS011;15787;49.662;10.162;2023-06-22T07:09:05;15.93;;;12.35;;
28587;SDS011;15787;49.662;10.162;2023-06-22T07:11:38;15.00;;;11.63;;
28587;SDS011;15787;49.662;10.162;2023-06-22T07:14:10;17.88;;;11.98;;
28587;SDS011;15787;49.662;10.162;2023-06-22T07:16:43;15.30;;;12.23;;
28587;SDS011;15787;49.662;10.162;2023-06-22T07:19:16;16.50;;;11.82;;
28587;SDS011;15787;49.662;10.162;2023-06-22T07:21:57;14.38;;;12.13;;
28587;SDS011;15787;49.662;10.162;2023-06-22T07:24:31;16.02;;;11.35;;
28587;SDS011;15787;49.662;10.162;2023-06-22T07:27:05;15.15;;;11.38;;
28587;SDS011;15787;49.662;10.162;2023-06-22T07:29:42;14.40;;;10.50;;
28587;SDS011;15787;49.662;10.162;2023-06-22T07:32:15;12.88;;;9.65;;
28587;SDS011;15787;49.662;10.162;2023-06-22T07:34:48;11.43;;;8.90;;
28587;SDS011;15787;49.662;10.162;2023-06-22T07:37:21;13.80;;;8.95;;
28587;SDS011;15787;49.662;10.162;2023-06-22T07:39:56;12.52;;;9.18;;
28587;SDS011;15787;49.662;10.162;2023-06-22T07:42:29;11.10;;;9.35;;
28587;SDS011;15787;49.662;10.162;2023-06-22T07:45:05;13.85;;;9.50;;
28587;SDS011;15787;49.662;10.162;2023-06-22T07:47:39;10.20;;;8.05;;
28587;SDS011;15787;49.662;10.162;2023-06-22T07:50:12;10.52;;;8.75;;
28587;SDS011;15787;49.662;10.162;2023-06-22T07:52:45;11.60;;;8.73;;
28587;SDS011;15787;49.662;10.162;2023-06-22T07:55:20;14.00;;;8.93;;
28587;SDS011;15787;49.662;10.162;2023-06-22T07:57:53;13.02;;;8.43;;
28587;SDS011;15787;49.662;10.162;2023-06-22T08:00:26;14.77;;;9.50;;
28587;SDS011;15787;49.662;10.162;2023-06-22T08:02:59;12.25;;;8.77;;
28587;SDS011;15787;49.662;10.162;2023-06-22T08:05:35;9.52;;;7.45;;
28587;SDS011;15787;49.662;10.162;2023-06-22T08:08:08;9.82;;;7.55;;
28587;SDS011;15787;49.662;10.162;2023-06-22T08:10:42;10.48;;;7.57;;
28587;SDS011;15787;49.662;10.162;2023-06-22T08:13:15;9.52;;;7.55;;
28587;SDS011;15787;49.662;10.162;2023-06-22T08:15:48;11.55;;;7.78;;
28587;SDS011;15787;49.662;10.162;2023-06-22T08:18:21;9.35;;;7.55;;
28587;SDS011;15787;49.662;10.162;2023-06-22T08:20:54;11.15;;;7.88;;
28587;SDS011;15787;49.662;10.162;2023-06-22T08:23:27;8.25;;;6.78;;
28587;SDS011;15787;49.662;10.162;2023-06-22T08:26:01;7.50;;;6.30;;
28587;SDS011;15787;49.662;10.162;2023-06-22T08:28:34;8.52;;;6.28;;
28587;SDS011;15787;49.662;10.162;2023-06-22T08:31:07;11.68;;;5.72;;
28587;SDS011;15787;49.662;10.162;2023-06-22T08:33:40;8.32;;;6.00;;
28587;SDS011;15787;49.662;10.162;2023-06-22T08:38:53;6.20;;;4.80;;
28587;SDS011;15787;49.662;10.162;2023-06-22T08:41:30;5.88;;;4.15;;
28587;SDS011;15787;49.662;10.162;2023-06-22T08:44:03;8.35;;;5.32;;
28587;SDS011;15787;49.662;10.162;2023-06-22T08:46:37;5.95;;;4.82;;
28587;SDS011;15787;49.662;10.162;2023-06-22T08:49:12;8.20;;;5.05;;
28587;SDS011;15787;49.662;10.162;2023-06-22T08:51:44;7.93;;;4.82;;
28587;SDS011;15787;49.662;10.162;2023-06-22T08:54:20;10.52;;;5.55;;
28587;SDS011;15787;49.662;10.162;2023-06-22T08:56:54;8.05;;;4.82;;
28587;SDS011;15787;49.662;10.162;2023-06-22T08:59:27;6.43;;;4.43;;
28587;SDS011;15787;49.662;10.162;2023-06-22T09:02:00;7.13;;;4.45;;
28587;SDS011;15787;49.662;10.162;2023-06-22T09:04:33;10.95;;;5.55;;
28587;SDS011;15787;49.662;10.162;2023-06-22T09:07:06;6.43;;;4.40;;
28587;SDS011;15787;49.662;10.162;2023-06-22T09:09:39;6.15;;;4.35;;
28587;SDS011;15787;49.662;10.162;2023-06-22T09:12:13;7.45;;;4.20;;
28587;SDS011;15787;49.662;10.162;2023-06-22T09:14:46;9.55;;;4.78;;
28587;SDS011;15787;49.662;10.162;2023-06-22T09:17:19;7.18;;;4.15;;
28587;SDS011;15787;49.662;10.162;2023-06-22T09:19:52;6.70;;;4.15;;
28587;SDS011;15787;49.662;10.162;2023-06-22T09:22:25;6.88;;;4.20;;
28587;SDS011;15787;49.662;10.162;2023-06-22T09:25:00;7.80;;;4.38;;
28587;SDS011;15787;49.662;10.162;2023-06-22T09:27:39;6.18;;;4.13;;
28587;SDS011;15787;49.662;10.162;2023-06-22T09:30:12;9.15;;;4.30;;
28587;SDS011;15787;49.662;10.162;2023-06-22T09:32:45;4.90;;;4.13;;
28587;SDS011;15787;49.662;10.162;2023-06-22T09:35:18;8.35;;;4.82;;
28587;SDS011;15787;49.662;10.162;2023-06-22T09:37:51;7.28;;;4.18;;
28587;SDS011;15787;49.662;10.162;2023-06-22T09:40:26;7.30;;;4.15;;
28587;SDS011;15787;49.662;10.162;2023-06-22T09:43:01;7.50;;;4.22;;
28587;SDS011;15787;49.662;10.162;2023-06-22T09:45:34;7.70;;;4.38;;
28587;SDS011;15787;49.662;10.162;2023-06-22T09:48:07;8.57;;;4.82;;
28587;SDS011;15787;49.662;10.162;2023-06-22T09:50:41;6.65;;;3.95;;
28587;SDS011;15787;49.662;10.162;2023-06-22T09:53:14;8.80;;;4.70;;
28587;SDS011;15787;49.662;10.162;2023-06-22T09:55:47;7.10;;;4.30;;
28587;SDS011;15787;49.662;10.162;2023-06-22T09:58:21;7.97;;;4.07;;
28587;SDS011;15787;49.662;10.162;2023-06-22T10:00:54;6.32;;;4.50;;
28587;SDS011;15787;49.662;10.162;2023-06-22T10:03:27;14.98;;;4.10;;
28587;SDS011;15787;49.662;10.162;2023-06-22T10:06:00;7.18;;;4.25;;
28587;SDS011;15787;49.662;10.162;2023-06-22T10:08:34;7.55;;;4.30;;
28587;SDS011;15787;49.662;10.162;2023-06-22T10:11:07;8.65;;;3.80;;
28587;SDS011;15787;49.662;10.162;2023-06-22T10:13:41;11.80;;;4.00;;
28587;SDS011;15787;49.662;10.162;2023-06-22T10:16:14;8.63;;;3.90;;
28587;SDS011;15787;49.662;10.162;2023-06-22T10:18:47;7.95;;;3.80;;
28587;SDS011;15787;49.662;10.162;2023-06-22T10:21:20;7.05;;;4.20;;
28587;SDS011;15787;49.662;10.162;2023-06-22T10:23:53;11.05;;;4.10;;
28587;SDS011;15787;49.662;10.162;2023-06-22T10:26:26;8.68;;;4.05;;
28587;SDS011;15787;49.662;10.162;2023-06-22T10:29:01;12.88;;;4.25;;
28587;SDS011;15787;49.662;10.162;2023-06-22T10:31:47;9.07;;;4.15;;
28587;SDS011;15787;49.662;10.162;2023-06-22T10:34:20;7.90;;;4.43;;
28587;SDS011;15787;49.662;10.162;2023-06-22T10:36:53;12.52;;;4.00;;
28587;SDS011;15787;49.662;10.162;2023-06-22T10:39:25;9.02;;;4.43;;
28587;SDS011;15787;49.662;10.162;2023-06-22T10:41:58;9.50;;;4.50;;
28587;SDS011;15787;49.662;10.162;2023-06-22T10:44:32;7.57;;;4.03;;
28587;SDS011;15787;49.662;10.162;2023-06-22T10:47:06;7.03;;;4.03;;
28587;SDS011;15787;49.662;10.162;2023-06-22T10:49:39;9.38;;;4.32;;
28587;SDS011;15787;49.662;10.162;2023-06-22T10:52:12;10.95;;;3.90;;
28587;SDS011;15787;49.662;10.162;2023-06-22T10:54:45;8.02;;;4.25;;
28587;SDS011;15787;49.662;10.162;2023-06-22T10:57:18;11.75;;;4.35;;
28587;SDS011;15787;49.662;10.162;2023-06-22T10:59:52;7.03;;;3.67;;
28587;SDS011;15787;49.662;10.162;2023-06-22T11:02:25;11.15;;;4.00;;
28587;SDS011;15787;49.662;10.162;2023-06-22T11:04:59;9.70;;;4.20;;
28587;SDS011;15787;49.662;10.162;2023-06-22T11:07:33;7.00;;;4.03;;
28587;SDS011;15787;49.662;10.162;2023-06-22T11:10:06;13.88;;;4.85;;
28587;SDS011;15787;49.662;10.162;2023-06-22T11:12:40;7.32;;;3.97;;
28587;SDS011;15787;49.662;10.162;2023-06-22T11:15:15;7.40;;;4.22;;
28587;SDS011;15787;49.662;10.162;2023-06-22T11:17:48;10.98;;;4.20;;
28587;SDS011;15787;49.662;10.162;2023-06-22T11:20:21;15.00;;;5.13;;
28587;SDS011;15787;49.662;10.162;2023-06-22T11:22:54;11.90;;;4.22;;
28587;SDS011;15787;49.662;10.162;2023-06-22T11:25:27;9.38;;;3.95;;
28587;SDS011;15787;49.662;10.162;2023-06-22T11:28:01;7.60;;;3.67;;
28587;SDS011;15787;49.662;10.162;2023-06-22T11:30:36;8.27;;;4.20;;
28587;SDS011;15787;49.662;10.162;2023-06-22T11:33:09;9.23;;;4.78;;
28587;SDS011;15787;49.662;10.162;2023-06-22T11:35:42;9.05;;;4.60;;
28587;SDS011;15787;49.662;10.162;2023-06-22T11:38:15;9.25;;;3.90;;
28587;SDS011;15787;49.662;10.162;2023-06-22T11:40:48;11.07;;;5.13;;
28587;SDS011;15787;49.662;10.162;2023-06-22T11:43:21;8.55;;;3.90;;
28587;SDS011;15787;49.662;10.162;2023-06-22T11:45:55;12.45;;;4.55;;
28587;SDS011;15787;49.662;10.162;2023-06-22T11:48:29;12.20;;;4.13;;
28587;SDS011;15787;49.662;10.162;2023-06-22T11:51:02;8.68;;;4.45;;
28587;SDS011;15787;49.662;10.162;2023-06-22T11:53:35;11.65;;;4.63;;
28587;SDS011;15787;49.662;10.162;2023-06-22T11:56:08;10.38;;;4.20;;
28587;SDS011;15787;49.662;10.162;2023-06-22T11:58:41;11.77;;;4.57;;
28587;SDS011;15787;49.662;10.162;2023-06-22T12:01:15;7.75;;;4.35;;
28587;SDS011;15787;49.662;10.162;2023-06-22T12:03:49;7.40;;;4.22;;
28587;SDS011;15787;49.662;10.162;2023-06-22T12:06:22;8.80;;;3.95;;
28587;SDS011;15787;49.662;10.162;2023-06-22T12:08:55;9.20;;;4.50;;
28587;SDS011;15787;49.662;10.162;2023-06-22T12:11:28;9.23;;;4.40;;
28587;SDS011;15787;49.662;10.162;2023-06-22T12:14:01;10.18;;;4.43;;
28587;SDS011;15787;49.662;10.162;2023-06-22T12:16:35;11.68;;;4.88;;
28587;SDS011;15787;49.662;10.162;2023-06-22T12:19:09;6.90;;;4.25;;
28587;SDS011;15787;49.662;10.162;2023-06-22T12:21:42;8.35;;;4.32;;
28587;SDS011;15787;49.662;10.162;2023-06-22T12:24:17;7.20;;;4.38;;
28587;SDS011;15787;49.662;10.162;2023-06-22T12:26:50;11.45;;;4.20;;
28587;SDS011;15787;49.662;10.162;2023-06-22T12:29:26;6.75;;;3.80;;
28587;SDS011;15787;49.662;10.162;2023-06-22T12:32:04;14.48;;;5.07;;
28587;SDS011;15787;49.662;10.162;2023-06-22T12:34:38;8.38;;;4.10;;
28587;SDS011;15787;49.662;10.162;2023-06-22T12:37:11;8.85;;;4.18;;
28587;SDS011;15787;49.662;10.162;2023-06-22T12:39:43;12.15;;;4.53;;
28587;SDS011;15787;49.662;10.162;2023-06-22T12:42:16;12.00;;;4.50;;
28587;SDS011;15787;49.662;10.162;2023-06-22T12:44:49;8.70;;;4.10;;
28587;SDS011;15787;49.662;10.162;2023-06-22T12:47:26;13.20;;;5.88;;
28587;SDS011;15787;49.662;10.162;2023-06-22T12:49:59;7.82;;;4.68;;
28587;SDS011;15787;49.662;10.162;2023-06-22T12:52:32;8.07;;;4.30;;
28587;SDS011;15787;49.662;10.162;2023-06-22T12:55:06;10.50;;;4.20;;
28587;SDS011;15787;49.662;10.162;2023-06-22T12:57:39;11.48;;;4.47;;
28587;SDS011;15787;49.662;10.162;2023-06-22T13:00:12;10.90;;;4.28;;
28587;SDS011;15787;49.662;10.162;2023-06-22T13:02:47;7.15;;;4.20;;
28587;SDS011;15787;49.662;10.162;2023-06-22T13:05:20;9.10;;;4.28;;
28587;SDS011;15787;49.662;10.162;2023-06-22T13:07:53;10.63;;;4.35;;
28587;SDS011;15787;49.662;10.162;2023-06-22T13:10:26;9.88;;;4.50;;
28587;SDS011;15787;49.662;10.162;2023-06-22T13:12:59;8.68;;;3.75;;
28587;SDS011;15787;49.662;10.162;2023-06-22T13:15:32;8.85;;;4.70;;
28587;SDS011;15787;49.662;10.162;2023-06-22T13:18:07;12.50;;;4.10;;
28587;SDS011;15787;49.662;10.162;2023-06-22T13:20:40;8.18;;;3.88;;
28587;SDS011;15787;49.662;10.162;2023-06-22T13:23:12;11.63;;;3.97;;
28587;SDS011;15787;49.662;10.162;2023-06-22T13:25:45;10.10;;;4.43;;
28587;SDS011;15787;49.662;10.162;2023-06-22T13:28:18;14.13;;;3.80;;
28587;SDS011;15787;49.662;10.162;2023-06-22T13:30:59;9.60;;;4.43;;
28587;SDS011;15787;49.662;10.162;2023-06-22T13:33:33;11.48;;;4.65;;
28587;SDS011;15787;49.662;10.162;2023-06-22T13:36:07;8.68;;;3.80;;
28587;SDS011;15787;49.662;10.162;2023-06-22T13:38:40;11.30;;;4.35;;
28587;SDS011;15787;49.662;10.162;2023-06-22T13:41:12;13.30;;;4.85;;
28587;SDS011;15787;49.662;10.162;2023-06-22T13:43:46;10.38;;;4.30;;
28587;SDS011;15787;49.662;10.162;2023-06-22T13:46:18;12.65;;;4.40;;
28587;SDS011;15787;49.662;10.162;2023-06-22T13:48:53;11.02;;;4.28;;
28587;SDS011;15787;49.662;10.162;2023-06-22T13:51:27;10.07;;;4.45;;
28587;SDS011;15787;49.662;10.162;2023-06-22T13:54:00;10.23;;;4.22;;
28587;SDS011;15787;49.662;10.162;2023-06-22T13:56:33;13.23;;;4.65;;
28587;SDS011;15787;49.662;10.162;2023-06-22T13:59:06;10.77;;;3.83;;
28587;SDS011;15787;49.662;10.162;2023-06-22T14:01:40;10.65;;;4.25;;
28587;SDS011;15787;49.662;10.162;2023-06-22T14:04:16;10.88;;;4.32;;
28587;SDS011;15787;49.662;10.162;2023-06-22T14:06:49;15.32;;;4.13;;
28587;SDS011;15787;49.662;10.162;2023-06-22T14:09:25;12.18;;;4.10;;
28587;SDS011;15787;49.662;10.162;2023-06-22T14:11:57;8.75;;;3.95;;
28587;SDS011;15787;49.662;10.162;2023-06-22T14:14:35;10.55;;;3.95;;
28587;SDS011;15787;49.662;10.162;2023-06-22T14:17:07;13.15;;;4.85;;
28587;SDS011;15787;49.662;10.162;2023-06-22T14:19:42;9.07;;;3.85;;
28587;SDS011;15787;49.662;10.162;2023-06-22T14:22:14;8.57;;;3.30;;
28587;SDS011;15787;49.662;10.162;2023-06-22T14:24:47;9.95;;;4.57;;
28587;SDS011;15787;49.662;10.162;2023-06-22T14:27:21;10.73;;;3.58;;
28587;SDS011;15787;49.662;10.162;2023-06-22T14:29:54;12.27;;;4.55;;
28587;SDS011;15787;49.662;10.162;2023-06-22T14:32:27;7.05;;;3.42;;
28587;SDS011;15787;49.662;10.162;2023-06-22T14:35:02;12.48;;;3.83;;
28587;SDS011;15787;49.662;10.162;2023-06-22T14:37:36;9.85;;;4.05;;
28587;SDS011;15787;49.662;10.162;2023-06-22T14:40:09;8.60;;;4.35;;
28587;SDS011;15787;49.662;10.162;2023-06-22T14:42:42;12.88;;;4.05;;
28587;SDS011;15787;49.662;10.162;2023-06-22T14:45:15;15.20;;;4.88;;
28587;SDS011;15787;49.662;10.162;2023-06-22T14:47:48;13.13;;;4.97;;
28587;SDS011;15787;49.662;10.162;2023-06-22T14:50:23;12.05;;;4.05;;
28587;SDS011;15787;49.662;10.162;2023-06-22T14:52:56;13.02;;;4.65;;
28587;SDS011;15787;49.662;10.162;2023-06-22T14:55:31;12.95;;;4.13;;
28587;SDS011;15787;49.662;10.162;2023-06-22T14:58:04;9.02;;;4.60;;
28587;SDS011;15787;49.662;10.162;2023-06-22T15:00:37;14.88;;;4.50;;